Pagrindinis puslapis
METAR-TAF:

METAR-TAF

Oro uostai :

Ramstein, Vokietija

platuma: 49-26N, ilguma: 007-36E, Aukštis: 238 m

Dabartinis oras

Ataskaita buvo paskelbta 1 valandą ir 10 minutes, ne 08:56 UTC
Vėjas 10 kt iš Rytų su gūsio iki 15 kt
Temperatūra 15°C
Drėgmė 44%
Slėgis 1028 hPa
Matomumas 10 km arba daugiau
Giedras dangus

METAR: ETAR 200856Z AUTO 08010G15KT 9999 CLR 15/03 A3037 RMK AO2 SLP292 T01480033 50001

Laikas: 12:06 (10:06 UTC)

Prognozė

Ataskaita buvo paskelbta 7 valandos ir 7 minutes, ne 02:59 UTC
Prognozė galioja nuo 20 metu 02 UTC su 21 metu 08 UTC
Vėjas 9 kt iš Rytų/Šiaurės Rytų
Matomumas 10 km arba daugiau
Mažai debesys ne aukštis 5000 ft
Laikinai
nuo 20 metu 10 UTC su 20 metu 16 UTC
Vėjas 15 kt iš Rytų su gūsio iki 20 kt
Tapsmas
nuo 20 metu 18 UTC su 20 metu 19 UTC
Vėjas 6 kt iš Rytų/Šiaurės Rytų
Matomumas 10 km arba daugiau
Giedras dangus

TAF: ETAR 200259Z 2002/2108 06009KT 9999 FEW050 QNH3026INS TEMPO 2010/2016 09015G20KT BECMG 2018/2019 07006KT 9999 SKC QNH3020INS TX15/2014Z TN01/2004Z

Orai ataskaitas ir orų prognozės (METAR, TAF).

turimą stotys yra geltonos ir raudonos taškus žemėlapyje.

Perkelti pele per norėdami pamatyti stoties vardą.

Tada spustelėkite, norėdami matyti oro stebėjimo ir prognozės.

Norėdami pakeisti žemėlapį: spustelėkite ant žalios mygtukų su juodo kryžiaus žemyn,; žalią mygtuką su brūkšneliu, jei norite nutolinti; arba žalių rodyklių gretimoms žemėlapius.


METAR-TAF: